GHB - Wetterstation

--- Lilienthal-Gleiter-Unterfranken e.V. --- (Impressum)
-> Windverlauf / Grafik
-> Barometerverlauf / Grafik
-> Wetter Links
-> WS GHB auf Windy



Bitte Uhrzeit beachten ob Daten aktuell sind!

Anzeige der letzten 100 Messwerte (~8 Stunden)
Datum Zeit Wind Richtung Richtung Böen Temperatur Feuchte Luftdruck
13.06.2024 16:31:01 4.6 km/h 255.2 ° W-SW 9 km/h 22.1 °C 52.5 % 1016.72 hPa
13.06.2024 16:26:16 3.22 km/h 241.6 ° W-SW 9 km/h 22.2 °C 53 % 1016.72 hPa
13.06.2024 16:21:32 0.7 km/h 268.9 ° W 2.16 km/h 21.8 °C 53.5 % 1016.72 hPa
13.06.2024 16:16:47 0.33 km/h 253.3 ° W-SW 0.72 km/h 21.4 °C 53.5 % 1016.82 hPa
13.06.2024 16:12:03 1.96 km/h 215.3 ° SW 5.04 km/h 21.2 °C 53.5 % 1016.82 hPa
13.06.2024 16:07:19 0.24 km/h 192.3 ° S-SW 1.08 km/h 21.2 °C 54 % 1016.82 hPa
13.06.2024 16:02:34 0.13 km/h 194 ° S-SW 0.36 km/h 20.6 °C 54 % 1016.82 hPa
13.06.2024 15:57:50 0 km/h 196.3 ° S-SW 0 km/h 20 °C 54.5 % 1016.82 hPa
13.06.2024 15:53:06 0 km/h 322.9 ° NW 0 km/h 19.6 °C 54 % 1017.02 hPa
13.06.2024 15:43:38 2.07 km/h 185.4 ° S 3.24 km/h 20 °C 53.5 % 1017.12 hPa
13.06.2024 15:38:54 2.82 km/h 208.7 ° S-SW 7.2 km/h 20.7 °C 53.5 % 1017.12 hPa
13.06.2024 15:34:09 6.92 km/h 223.3 ° SW 9 km/h 21.1 °C 54.5 % 1017.22 hPa
13.06.2024 15:29:25 2.55 km/h 273.9 ° W 6.84 km/h 20.9 °C 53.5 % 1017.22 hPa
13.06.2024 15:24:40 4.09 km/h 273.3 ° W 9.36 km/h 21.2 °C 53 % 1017.22 hPa
13.06.2024 15:19:56 4.09 km/h 217.2 ° SW 6.12 km/h 22 °C 54 % 1017.22 hPa
13.06.2024 15:15:12 6.76 km/h 196.8 ° S-SW 9.72 km/h 21.3 °C 54 % 1017.32 hPa
13.06.2024 15:10:27 4.93 km/h 233.3 ° SW 8.64 km/h 21 °C 53 % 1017.32 hPa
13.06.2024 15:05:43 8.02 km/h 224.9 ° SW 10.08 km/h 21.6 °C 54 % 1017.32 hPa
13.06.2024 15:00:58 2.9 km/h 213.6 ° S-SW 9.72 km/h 21.3 °C 54.5 % 1017.32 hPa
13.06.2024 14:56:14 3.7 km/h 221.6 ° SW 6.84 km/h 20.2 °C 55 % 1017.42 hPa
13.06.2024 14:51:30 0.81 km/h 203.7 ° S-SW 6.84 km/h 19.3 °C 54.5 % 1017.52 hPa
13.06.2024 14:46:46 4.81 km/h 191.7 ° S-SW 7.92 km/h 19 °C 53.5 % 1017.52 hPa
13.06.2024 14:42:01 1.77 km/h 197.8 ° S-SW 7.2 km/h 19.7 °C 52.5 % 1017.42 hPa
13.06.2024 14:37:17 0.58 km/h 226.8 ° SW 1.8 km/h 20.3 °C 52.5 % 1017.62 hPa
13.06.2024 14:27:49 1.29 km/h 187.3 ° S 3.6 km/h 21.4 °C 52.5 % 1017.52 hPa
13.06.2024 14:23:04 0.97 km/h 166.9 ° S-SO 2.88 km/h 21.1 °C 52.5 % 1017.62 hPa
13.06.2024 14:18:20 0.51 km/h 226.2 ° SW 2.16 km/h 20 °C 53 % 1017.62 hPa
13.06.2024 14:13:36 1.84 km/h 194 ° S-SW 3.6 km/h 19.4 °C 53 % 1017.72 hPa
13.06.2024 14:04:08 0.1 km/h 249.5 ° W-SW 0.72 km/h 18.1 °C 53.5 % 1017.72 hPa
13.06.2024 13:59:25 0 km/h 195.5 ° S-SW 0 km/h 18.1 °C 53.5 % 1017.72 hPa
13.06.2024 13:54:41 0.61 km/h 182.5 ° S 1.8 km/h 18 °C 53.5 % 1017.72 hPa
13.06.2024 13:49:57 3.21 km/h 189.6 ° S 6.84 km/h 17.8 °C 54 % 1017.72 hPa
13.06.2024 13:45:13 1.4 km/h 212.5 ° S-SW 3.6 km/h 17.3 °C 54 % 1017.82 hPa
13.06.2024 13:37:03 1.6 km/h 243 ° W-SW 2.88 km/h 17.5 °C 53.5 % 1017.82 hPa
13.06.2024 13:32:19 0.73 km/h 292 ° W-NW 3.96 km/h 18.1 °C 53.5 % 1017.82 hPa
13.06.2024 13:27:35 0 km/h 307.4 ° NW 0 km/h 18.7 °C 53 % 1017.92 hPa
13.06.2024 13:22:51 0 km/h 221.2 ° SW 0 km/h 19.3 °C 53 % 1017.92 hPa
13.06.2024 13:18:07 1.28 km/h 234.8 ° SW 5.4 km/h 19.7 °C 52 % 1017.92 hPa
13.06.2024 13:13:23 4.35 km/h 210.8 ° S-SW 8.28 km/h 20.1 °C 52 % 1017.82 hPa
13.06.2024 13:08:39 3.85 km/h 216.3 ° SW 9 km/h 19.9 °C 53 % 1017.82 hPa
13.06.2024 13:03:55 3.45 km/h 181 ° S 6.84 km/h 19.4 °C 54 % 1017.82 hPa
13.06.2024 12:59:11 0.31 km/h 198 ° S-SW 3.24 km/h 18.6 °C 53.5 % 1018.02 hPa
13.06.2024 12:54:27 0.74 km/h 312.8 ° NW 3.6 km/h 18.5 °C 53.5 % 1018.02 hPa
13.06.2024 12:49:43 0.84 km/h 313.3 ° NW 2.88 km/h 19.1 °C 53 % 1018.12 hPa
13.06.2024 12:44:59 0.05 km/h 294.1 ° W-NW 0.36 km/h 20 °C 52.5 % 1018.12 hPa
13.06.2024 12:40:15 0.36 km/h 215.7 ° SW 2.88 km/h 20.9 °C 52.5 % 1018.02 hPa
13.06.2024 12:24:46 1.39 km/h 205.4 ° S-SW 6.84 km/h 21.8 °C 51.5 % 1018.12 hPa
13.06.2024 12:20:01 1.13 km/h 244.7 ° W-SW 5.04 km/h 21.1 °C 52 % 1018.22 hPa
13.06.2024 12:10:33 2.17 km/h 26.2 ° N-NO 5.04 km/h 19.5 °C 52.5 % 1018.32 hPa
13.06.2024 12:05:49 0 km/h 291 ° W-NW 0 km/h 20.4 °C 52 % 1018.32 hPa
13.06.2024 12:01:04 0 km/h 349.8 ° N 0 km/h 21.1 °C 51.5 % 1018.42 hPa
13.06.2024 11:56:20 0.56 km/h 261.9 ° W 3.6 km/h 22.5 °C 51 % 1018.42 hPa
13.06.2024 11:51:35 5.83 km/h 151.8 ° S-SO 9.36 km/h 23.2 °C 50 % 1018.42 hPa
13.06.2024 11:46:50 1.89 km/h 177.6 ° S 4.68 km/h 23.9 °C 49.5 % 1018.42 hPa
13.06.2024 11:42:05 2.08 km/h 167.9 ° S-SO 7.2 km/h 22.9 °C 50 % 1018.42 hPa
13.06.2024 11:37:20 4.19 km/h 206.2 ° S-SW 10.44 km/h 21.8 °C 50 % 1018.52 hPa
13.06.2024 11:32:35 0.33 km/h 207.9 ° S-SW 1.08 km/h 21.3 °C 51 % 1018.62 hPa
13.06.2024 11:27:51 0.74 km/h 269.3 ° W 2.52 km/h 21.7 °C 50.5 % 1018.72 hPa
13.06.2024 11:23:06 2.19 km/h 312.2 ° NW 6.84 km/h 23.9 °C 48.5 % 1018.72 hPa
13.06.2024 11:18:21 1.57 km/h 263.6 ° W 7.2 km/h 25 °C 47.5 % 1018.72 hPa
13.06.2024 11:08:11 1.61 km/h 336.6 ° N-NW 4.32 km/h 24.8 °C 47 % 1018.82 hPa
13.06.2024 11:03:26 1.89 km/h 148.8 ° S-SO 6.12 km/h 25 °C 46.5 % 1018.82 hPa
13.06.2024 10:53:55 2.81 km/h 199.1 ° S-SW 7.92 km/h 24.9 °C 46 % 1018.82 hPa
13.06.2024 10:49:10 2.27 km/h 195.1 ° S-SW 8.64 km/h 24.6 °C 46.5 % 1018.92 hPa
13.06.2024 10:44:25 2.24 km/h 213.4 ° S-SW 5.04 km/h 24.6 °C 46.5 % 1019.02 hPa
13.06.2024 10:39:39 2.86 km/h 249.5 ° W-SW 7.56 km/h 25.1 °C 45.5 % 1019.02 hPa
13.06.2024 10:34:54 0.36 km/h 166.9 ° S-SO 1.08 km/h 25.3 °C 45 % 1018.92 hPa
13.06.2024 10:30:09 0.27 km/h 231 ° SW 1.44 km/h 24.9 °C 45 % 1019.02 hPa
13.06.2024 10:25:24 0.46 km/h 7.1 ° N 2.16 km/h 24.4 °C 45 % 1018.92 hPa
13.06.2024 10:20:39 0.02 km/h 182.3 ° S 0.36 km/h 23.4 °C 45.5 % 1018.92 hPa
13.06.2024 10:15:54 1.34 km/h 95 ° O 5.4 km/h 21.7 °C 47 % 1019.02 hPa
13.06.2024 10:05:44 1.06 km/h 270.6 ° W 3.24 km/h 18.4 °C 50.5 % 1019.12 hPa
13.06.2024 10:01:00 0.27 km/h 268.7 ° W 1.44 km/h 16.8 °C 52.5 % 1019.12 hPa
13.06.2024 09:56:16 0.06 km/h 1.8 ° N 0.36 km/h 16.5 °C 52.5 % 1019.22 hPa
13.06.2024 09:51:33 0.07 km/h 290.1 ° W-NW 0.36 km/h 16.9 °C 52.5 % 1019.22 hPa
13.06.2024 09:46:49 0.04 km/h 165.4 ° S-SO 0.36 km/h 17.6 °C 52 % 1019.12 hPa
13.06.2024 09:42:05 0.62 km/h 348.8 ° N 1.8 km/h 18.4 °C 50.5 % 1019.12 hPa
13.06.2024 09:37:21 0.06 km/h 241.8 ° W-SW 0.36 km/h 19.8 °C 49 % 1019.02 hPa
13.06.2024 09:32:37 1.11 km/h 355.3 ° N 2.88 km/h 21.1 °C 47.5 % 1019.02 hPa
13.06.2024 09:27:52 0.8 km/h 324.4 ° NW 3.24 km/h 21.7 °C 47 % 1018.92 hPa
13.06.2024 09:23:08 1.32 km/h 308.2 ° NW 5.4 km/h 21.4 °C 47 % 1018.92 hPa
13.06.2024 09:18:23 0.78 km/h 6.4 ° N 2.16 km/h 21.1 °C 48 % 1019.02 hPa
13.06.2024 09:13:39 0.36 km/h 345.4 ° N-NW 4.32 km/h 22.1 °C 46 % 1019.02 hPa
13.06.2024 09:08:54 0.61 km/h 228.3 ° SW 4.32 km/h 22.5 °C 45.5 % 1019.02 hPa
13.06.2024 09:04:10 0 km/h 240.9 ° W-SW 0.36 km/h 21.8 °C 45.5 % 1018.92 hPa
13.06.2024 08:59:25 0.66 km/h 194.9 ° S-SW 1.8 km/h 21.4 °C 46.5 % 1019.02 hPa
13.06.2024 08:54:41 0.31 km/h 216.7 ° SW 2.16 km/h 22 °C 45 % 1019.12 hPa
13.06.2024 08:49:56 0.42 km/h 265.1 ° W 1.44 km/h 22.2 °C 44.5 % 1019.02 hPa
13.06.2024 08:45:11 0.05 km/h 167.3 ° S-SO 1.08 km/h 21.2 °C 45.5 % 1019.02 hPa
13.06.2024 08:40:27 0.01 km/h 137.3 ° SO 0.72 km/h 19.6 °C 47 % 1019.02 hPa
13.06.2024 08:35:43 1.71 km/h 144.2 ° SO 3.6 km/h 17.9 °C 48.5 % 1019.02 hPa
13.06.2024 08:26:16 1.08 km/h 188.8 ° S 3.24 km/h 16.3 °C 50 % 1018.92 hPa
13.06.2024 08:21:32 0.52 km/h 177 ° S 3.6 km/h 15.5 °C 51 % 1018.82 hPa
13.06.2024 08:16:48 0 km/h 164.6 ° S-SO 0 km/h 14.7 °C 51.5 % 1018.92 hPa
13.06.2024 08:12:05 0 km/h 184.6 ° S 0 km/h 14.6 °C 51 % 1019.02 hPa
13.06.2024 08:07:22 0.04 km/h 178.3 ° S 0.36 km/h 14.2 °C 51.5 % 1019.02 hPa
13.06.2024 08:02:39 0.01 km/h 195.5 ° S-SW 0.36 km/h 13 °C 53 % 1019.02 hPa
13.06.2024 07:57:56 0 km/h 221.4 ° SW 0 km/h 11.7 °C 54.5 % 1019.02 hPa
13.06.2024 07:48:30 0 km/h 240.5 ° W-SW 0 km/h 10 °C 56 % 1019.02 hPa
13.06.2024 07:43:48 0 km/h 221.2 ° SW 0 km/h 9.9 °C 56 % 1019.12 hPa